Time;durP1;ratioP1;P1;durP2;ratioP2;P2;SDS_P1;SDS_P2;PMS_P1;PMS_P2;Temp;Humidity;BMP_temperature;BMP_pressure;BME280_temperature;BME280_humidity;BME280_pressure;Samples;Min_cycle;Max_cycle;Signal;HPM_P1;HPM_P2
2022/09/22 00:01:38;;;;;;;2.92;1.60;;;;;;;;;;5038932;28;20068;-68
2022/09/22 00:04:07;;;;;;;6.78;2.03;;;;;;;;;;5042792;28;20484;-68
2022/09/22 00:06:37;;;;;;;26.55;2.50;;;;;;;;;;5043421;28;20048;-68
2022/09/22 00:09:04;;;;;;;3.55;1.85;;;;;;;;;;5040889;28;20041;-68
2022/09/22 00:11:32;;;;;;;67.95;3.53;;;;;;;;;;5048041;28;20033;-69
2022/09/22 00:14:00;;;;;;;21.30;2.55;;;;;;;;;;5042734;28;20079;-68
2022/09/22 00:16:28;;;;;;;2.60;1.60;;;;;;;;;;5040673;28;20048;-69
2022/09/22 00:18:54;;;;;;;5.65;2.13;;;;;;;;;;5039968;28;20045;-68
2022/09/22 00:21:21;;;;;;;3.22;2.05;;;;;;;;;;5041171;28;20059;-68
2022/09/22 00:23:48;;;;;;;6.93;1.92;;;;;;;;;;5043134;28;20044;-68
2022/09/22 00:26:15;;;;;;;3.85;1.77;;;;;;;;;;5042403;28;20056;-69
2022/09/22 00:28:43;;;;;;;2.10;1.27;;;;;;;;;;5041603;28;20106;-68
2022/09/22 00:31:11;;;;;;;3.00;1.33;;;;;;;;;;5037256;28;20182;-68
2022/09/22 00:33:39;;;;;;;2.88;1.50;;;;;;;;;;5045325;28;20049;-68
2022/09/22 00:36:05;;;;;;;2.67;1.30;;;;;;;;;;5044363;28;20789;-68
2022/09/22 00:38:32;;;;;;;3.10;1.52;;;;;;;;;;5046502;28;20646;-68
2022/09/22 00:40:59;;;;;;;41.85;2.15;;;;;;;;;;5046601;28;20163;-68
2022/09/22 00:43:26;;;;;;;9.55;1.50;;;;;;;;;;5042427;28;20037;-68
2022/09/22 00:46:02;;;;;;;10.85;1.40;;;;;;;;;;5040717;28;20056;-68
2022/09/22 00:48:30;;;;;;;5.80;1.13;;;;;;;;;;5042782;28;20063;-68
2022/09/22 00:50:56;;;;;;;15.77;1.48;;;;;;;;;;5042781;28;20037;-68
2022/09/22 00:53:24;;;;;;;1.88;1.00;;;;;;;;;;5041642;28;20057;-68
2022/09/22 00:55:53;;;;;;;46.30;3.95;;;;;;;;;;5045115;28;20060;-68
2022/09/22 00:58:22;;;;;;;41.53;3.22;;;;;;;;;;5042290;28;20076;-68
2022/09/22 01:00:49;;;;;;;34.67;2.17;;;;;;;;;;5044174;28;20139;-68
2022/09/22 01:03:17;;;;;;;12.38;2.00;;;;;;;;;;5028366;28;20485;-69
2022/09/22 01:05:46;;;;;;;12.55;1.40;;;;;;;;;;5036425;28;20105;-68
2022/09/22 01:08:14;;;;;;;7.20;1.08;;;;;;;;;;5036479;28;20044;-68
2022/09/22 01:10:40;;;;;;;4.72;1.20;;;;;;;;;;5036014;28;20120;-68
2022/09/22 01:13:09;;;;;;;114.95;4.13;;;;;;;;;;5041219;28;20041;-68
2022/09/22 01:15:59;;;;;;;23.98;2.47;;;;;;;;;;5044583;28;20385;-68
2022/09/22 01:18:36;;;;;;;27.25;2.50;;;;;;;;;;5043726;28;20045;-68
2022/09/22 01:21:03;;;;;;;12.02;1.58;;;;;;;;;;5043088;28;20048;-68
2022/09/22 01:23:37;;;;;;;10.07;1.88;;;;;;;;;;5043350;28;20053;-68
2022/09/22 01:26:05;;;;;;;111.03;5.78;;;;;;;;;;5047566;28;20072;-68
2022/09/22 01:28:44;;;;;;;45.22;3.40;;;;;;;;;;5047898;28;20119;-68
2022/09/22 01:31:24;;;;;;;30.42;2.50;;;;;;;;;;5049665;28;20555;-68
2022/09/22 01:33:54;;;;;;;32.22;2.83;;;;;;;;;;5040984;28;20402;-68
2022/09/22 01:36:26;;;;;;;23.17;2.60;;;;;;;;;;5029659;28;20055;-68
2022/09/22 01:39:01;;;;;;;37.60;2.25;;;;;;;;;;5048386;28;21584;-68
2022/09/22 01:41:41;;;;;;;45.42;2.85;;;;;;;;;;5046774;28;20452;-68
2022/09/22 01:44:10;;;;;;;6.40;1.45;;;;;;;;;;5042689;28;20056;-68
2022/09/22 01:46:38;;;;;;;24.52;2.00;;;;;;;;;;5046303;28;20121;-68
2022/09/22 01:49:06;;;;;;;14.98;1.40;;;;;;;;;;5044869;28;20049;-68
2022/09/22 01:51:39;;;;;;;2.03;0.90;;;;;;;;;;5044108;28;20084;-68
2022/09/22 01:54:14;;;;;;;4.57;1.23;;;;;;;;;;5039283;28;20397;-68
2022/09/22 01:56:42;;;;;;;3.30;1.40;;;;;;;;;;5038425;28;20535;-68
2022/09/22 01:59:10;;;;;;;3.95;1.70;;;;;;;;;;5053232;28;20132;-68
2022/09/22 02:01:41;;;;;;;3.10;1.75;;;;;;;;;;5041451;28;20063;-68
2022/09/22 02:04:11;;;;;;;4.80;2.10;;;;;;;;;;5025361;28;20084;-68
2022/09/22 02:06:44;;;;;;;2.90;1.60;;;;;;;;;;5042698;28;20419;-68
2022/09/22 02:09:11;;;;;;;4.38;1.85;;;;;;;;;;5041551;28;20068;-68
2022/09/22 02:11:37;;;;;;;4.38;1.83;;;;;;;;;;5038918;28;20055;-69
2022/09/22 02:14:05;;;;;;;4.25;2.45;;;;;;;;;;5038147;28;20060;-68
2022/09/22 02:16:31;;;;;;;23.40;2.80;;;;;;;;;;5040149;28;20040;-68
2022/09/22 02:19:05;;;;;;;5.57;2.20;;;;;;;;;;5037047;28;21338;-68
2022/09/22 02:21:31;;;;;;;9.93;2.47;;;;;;;;;;5037893;28;20051;-68
2022/09/22 02:23:59;;;;;;;28.10;3.20;;;;;;;;;;5037048;28;20049;-68
2022/09/22 02:26:28;;;;;;;10.30;2.50;;;;;;;;;;5039444;28;20055;-68
2022/09/22 02:28:58;;;;;;;17.77;2.90;;;;;;;;;;5035831;28;20044;-68
2022/09/22 02:31:27;;;;;;;3.97;2.25;;;;;;;;;;5040457;28;20060;-68
2022/09/22 02:33:54;;;;;;;6.32;2.30;;;;;;;;;;5036389;28;20060;-68
2022/09/22 02:36:24;;;;;;;8.77;2.05;;;;;;;;;;5035551;28;20116;-68
2022/09/22 02:39:00;;;;;;;12.00;2.40;;;;;;;;;;5039007;28;20406;-68
2022/09/22 02:41:32;;;;;;;9.75;2.17;;;;;;;;;;5038517;28;20048;-68
2022/09/22 02:43:58;;;;;;;32.38;3.55;;;;;;;;;;5034159;28;20045;-69
2022/09/22 02:46:28;;;;;;;3.72;2.38;;;;;;;;;;5041902;28;20040;-68
2022/09/22 02:48:57;;;;;;;4.47;2.67;;;;;;;;;;5036813;28;20057;-68
2022/09/22 02:51:24;;;;;;;5.60;2.70;;;;;;;;;;5034683;28;20405;-68
2022/09/22 02:53:50;;;;;;;4.00;2.10;;;;;;;;;;5039854;28;21268;-69
2022/09/22 02:56:16;;;;;;;4.15;2.20;;;;;;;;;;5040689;28;20472;-68
2022/09/22 02:58:42;;;;;;;4.22;2.40;;;;;;;;;;5042347;28;20060;-68
2022/09/22 03:01:08;;;;;;;5.72;2.85;;;;;;;;;;5042850;28;20140;-68
2022/09/22 03:03:34;;;;;;;6.07;3.72;;;;;;;;;;5035334;28;20072;-69
2022/09/22 03:06:00;;;;;;;5.35;3.50;;;;;;;;;;5041311;28;20049;-68
2022/09/22 03:08:27;;;;;;;5.50;3.10;;;;;;;;;;5041477;28;20453;-68
2022/09/22 03:10:53;;;;;;;6.40;3.65;;;;;;;;;;5034617;28;20119;-68
2022/09/22 03:13:19;;;;;;;6.03;3.85;;;;;;;;;;5038014;28;20044;-68
2022/09/22 03:15:45;;;;;;;8.02;4.25;;;;;;;;;;5039970;28;21017;-68
2022/09/22 03:18:12;;;;;;;5.78;2.85;;;;;;;;;;5041255;28;20055;-68
2022/09/22 03:20:38;;;;;;;11.38;3.50;;;;;;;;;;5036275;28;20475;-68
2022/09/22 03:23:04;;;;;;;22.05;2.47;;;;;;;;;;5045045;28;20040;-68
2022/09/22 03:25:30;;;;;;;3.72;1.73;;;;;;;;;;5048480;28;20045;-68
2022/09/22 03:27:57;;;;;;;3.13;1.60;;;;;;;;;;5044227;28;20053;-68
2022/09/22 03:30:23;;;;;;;3.65;1.70;;;;;;;;;;5043844;28;20148;-68
2022/09/22 03:32:49;;;;;;;7.05;2.33;;;;;;;;;;5040124;28;20129;-68
2022/09/22 03:35:15;;;;;;;5.38;2.85;;;;;;;;;;5030095;28;20132;-68
2022/09/22 03:37:41;;;;;;;7.65;4.13;;;;;;;;;;5035195;28;20037;-68
2022/09/22 03:40:08;;;;;;;8.13;4.00;;;;;;;;;;5037580;28;20040;-68
2022/09/22 03:42:34;;;;;;;7.03;3.50;;;;;;;;;;5044884;28;20045;-68
2022/09/22 03:45:03;;;;;;;6.68;2.97;;;;;;;;;;5041637;28;20102;-68
2022/09/22 03:47:29;;;;;;;4.25;2.85;;;;;;;;;;5043640;28;20084;-68
2022/09/22 03:49:55;;;;;;;5.20;2.85;;;;;;;;;;5049203;28;20032;-68
2022/09/22 03:52:21;;;;;;;6.85;3.65;;;;;;;;;;5075414;28;20067;-68
2022/09/22 03:54:48;;;;;;;6.95;3.20;;;;;;;;;;5041894;28;20095;-68
2022/09/22 03:57:14;;;;;;;8.52;4.07;;;;;;;;;;5045798;28;20049;-68
2022/09/22 03:59:40;;;;;;;7.50;3.25;;;;;;;;;;5037055;28;20107;-68
2022/09/22 04:02:07;;;;;;;7.10;2.92;;;;;;;;;;5040142;28;20084;-68
2022/09/22 04:04:33;;;;;;;6.15;3.30;;;;;;;;;;5044000;28;20045;-68
2022/09/22 04:06:59;;;;;;;5.90;3.63;;;;;;;;;;5041049;28;20180;-68
2022/09/22 04:09:25;;;;;;;7.10;3.38;;;;;;;;;;5045250;28;20126;-68
2022/09/22 04:11:51;;;;;;;7.38;3.85;;;;;;;;;;5043533;28;20121;-68
2022/09/22 04:14:17;;;;;;;5.13;3.38;;;;;;;;;;5044890;28;20045;-68
2022/09/22 04:16:44;;;;;;;4.97;2.67;;;;;;;;;;5042151;28;20148;-68
2022/09/22 04:19:11;;;;;;;4.68;2.90;;;;;;;;;;5039196;28;20130;-68
2022/09/22 04:21:37;;;;;;;5.70;3.10;;;;;;;;;;5035825;28;20503;-68
2022/09/22 04:24:09;;;;;;;5.43;3.03;;;;;;;;;;5041330;28;20378;-68
2022/09/22 04:26:35;;;;;;;7.60;4.20;;;;;;;;;;5049061;28;20067;-68
2022/09/22 04:29:01;;;;;;;9.60;4.38;;;;;;;;;;5046138;28;20086;-68
2022/09/22 04:31:27;;;;;;;6.97;3.60;;;;;;;;;;5039122;28;20137;-68
2022/09/22 04:33:53;;;;;;;7.30;4.15;;;;;;;;;;5044145;28;20048;-66
2022/09/22 04:36:20;;;;;;;8.57;4.72;;;;;;;;;;5041039;28;20472;-68
2022/09/22 04:38:46;;;;;;;10.52;4.70;;;;;;;;;;5045242;28;20037;-68
2022/09/22 04:41:12;;;;;;;8.02;4.50;;;;;;;;;;5041046;28;20060;-68
2022/09/22 04:43:38;;;;;;;6.65;3.78;;;;;;;;;;5040364;28;20139;-68
2022/09/22 04:46:05;;;;;;;8.32;4.10;;;;;;;;;;5042846;28;20144;-68
2022/09/22 04:48:31;;;;;;;10.63;4.80;;;;;;;;;;5047136;28;20361;-68
2022/09/22 04:50:57;;;;;;;7.80;4.13;;;;;;;;;;5048506;28;21972;-68
2022/09/22 04:53:23;;;;;;;9.13;4.38;;;;;;;;;;5045480;28;20345;-68
2022/09/22 04:55:50;;;;;;;10.65;4.82;;;;;;;;;;5036053;28;20044;-68
2022/09/22 04:58:16;;;;;;;6.68;4.30;;;;;;;;;;5035595;28;20049;-68
2022/09/22 05:00:42;;;;;;;6.22;3.42;;;;;;;;;;5052154;28;20095;-67
2022/09/22 05:03:09;;;;;;;5.43;3.13;;;;;;;;;;5061086;28;20523;-67
2022/09/22 05:05:36;;;;;;;5.75;3.00;;;;;;;;;;5054691;28;20493;-67
2022/09/22 05:08:02;;;;;;;4.35;2.72;;;;;;;;;;5054550;28;20726;-68
2022/09/22 05:10:31;;;;;;;4.32;2.20;;;;;;;;;;5049664;28;20438;-67
2022/09/22 05:12:57;;;;;;;4.78;3.03;;;;;;;;;;5031961;28;20056;-67
2022/09/22 05:15:24;;;;;;;6.10;2.55;;;;;;;;;;5045659;28;20063;-67
2022/09/22 05:17:51;;;;;;;5.70;3.75;;;;;;;;;;5050521;28;20040;-67
2022/09/22 05:20:18;;;;;;;10.38;4.15;;;;;;;;;;5053484;28;20088;-68
2022/09/22 05:22:46;;;;;;;5.00;2.78;;;;;;;;;;5052150;28;20096;-67
2022/09/22 05:25:13;;;;;;;5.40;3.30;;;;;;;;;;5052436;28;21085;-68
2022/09/22 05:27:47;;;;;;;8.30;3.97;;;;;;;;;;5065946;28;20052;-68
2022/09/22 05:30:13;;;;;;;7.95;4.75;;;;;;;;;;5054355;28;20132;-67
2022/09/22 05:32:43;;;;;;;8.50;4.10;;;;;;;;;;5062322;28;20078;-67
2022/09/22 05:35:10;;;;;;;10.60;4.38;;;;;;;;;;5062501;28;20144;-67
2022/09/22 05:37:36;;;;;;;9.00;4.50;;;;;;;;;;5057835;28;20120;-67
2022/09/22 05:40:03;;;;;;;9.88;4.28;;;;;;;;;;5049934;28;20076;-67
2022/09/22 05:42:29;;;;;;;12.10;4.85;;;;;;;;;;5050164;28;20048;-67
2022/09/22 05:44:55;;;;;;;8.77;4.55;;;;;;;;;;5048491;28;20096;-67
2022/09/22 05:47:21;;;;;;;7.63;4.20;;;;;;;;;;5054914;28;20067;-67
2022/09/22 05:49:47;;;;;;;7.47;4.47;;;;;;;;;;5057698;28;20048;-68
2022/09/22 05:52:13;;;;;;;8.07;4.60;;;;;;;;;;5059342;28;20053;-67
2022/09/22 05:54:40;;;;;;;8.45;4.28;;;;;;;;;;5062268;28;20076;-68
2022/09/22 05:57:06;;;;;;;10.95;4.50;;;;;;;;;;5063251;28;20124;-67
2022/09/22 05:59:32;;;;;;;10.45;4.13;;;;;;;;;;5054470;28;20055;-67
2022/09/22 06:01:58;;;;;;;8.32;4.57;;;;;;;;;;5066220;28;20032;-67
2022/09/22 06:04:24;;;;;;;10.23;4.22;;;;;;;;;;5052944;28;20041;-67
2022/09/22 06:06:50;;;;;;;8.68;4.30;;;;;;;;;;5058420;28;20045;-67
2022/09/22 06:09:17;;;;;;;10.65;4.63;;;;;;;;;;5057024;28;20418;-67
2022/09/22 06:11:43;;;;;;;11.85;4.40;;;;;;;;;;5060086;28;20373;-67
2022/09/22 06:14:09;;;;;;;7.50;4.47;;;;;;;;;;5058444;28;20407;-68
2022/09/22 06:16:35;;;;;;;9.25;4.70;;;;;;;;;;5059677;28;20453;-67
2022/09/22 06:19:01;;;;;;;11.02;6.00;;;;;;;;;;5064335;28;20089;-67
2022/09/22 06:21:27;;;;;;;10.93;5.50;;;;;;;;;;5053841;28;20473;-67
2022/09/22 06:23:56;;;;;;;9.55;5.20;;;;;;;;;;5059988;28;20480;-67
2022/09/22 06:26:22;;;;;;;9.07;5.40;;;;;;;;;;5062346;28;20041;-67
2022/09/22 06:28:48;;;;;;;11.13;5.50;;;;;;;;;;5061291;28;20119;-67
2022/09/22 06:31:14;;;;;;;13.60;6.85;;;;;;;;;;5061799;28;20095;-67
2022/09/22 06:33:47;;;;;;;14.45;6.28;;;;;;;;;;5059906;28;20086;-67
2022/09/22 06:36:22;;;;;;;10.48;6.32;;;;;;;;;;5060134;28;20076;-66
2022/09/22 06:38:49;;;;;;;11.45;6.55;;;;;;;;;;5054910;28;20040;-66
2022/09/22 06:41:15;;;;;;;15.70;7.25;;;;;;;;;;5057333;28;20074;-66
2022/09/22 06:43:43;;;;;;;16.33;7.35;;;;;;;;;;5061299;28;20078;-66
2022/09/22 06:46:09;;;;;;;17.35;7.20;;;;;;;;;;5063275;28;20050;-67
2022/09/22 06:48:36;;;;;;;16.00;7.13;;;;;;;;;;5058710;28;20361;-68
2022/09/22 06:51:02;;;;;;;16.23;7.25;;;;;;;;;;5043027;28;20049;-68
2022/09/22 06:53:28;;;;;;;11.65;7.60;;;;;;;;;;5060670;28;20553;-67
2022/09/22 06:55:55;;;;;;;12.15;7.63;;;;;;;;;;5061311;28;20500;-67
2022/09/22 06:58:21;;;;;;;16.67;8.15;;;;;;;;;;5062989;28;20057;-67
2022/09/22 07:00:47;;;;;;;12.18;7.00;;;;;;;;;;5064299;28;20060;-67
2022/09/22 07:03:18;;;;;;;12.48;6.68;;;;;;;;;;5060712;28;20127;-68
2022/09/22 07:05:52;;;;;;;13.73;6.53;;;;;;;;;;5064093;28;20040;-68
2022/09/22 07:08:19;;;;;;;11.85;5.70;;;;;;;;;;5061894;28;20048;-68
2022/09/22 07:10:45;;;;;;;10.95;6.55;;;;;;;;;;5059910;28;20136;-68
2022/09/22 07:13:12;;;;;;;12.27;5.75;;;;;;;;;;5057046;28;20029;-68
2022/09/22 07:15:38;;;;;;;12.63;5.50;;;;;;;;;;5056731;28;20064;-67
2022/09/22 07:18:04;;;;;;;12.52;5.35;;;;;;;;;;5058828;28;20040;-68
2022/09/22 07:20:32;;;;;;;10.85;5.57;;;;;;;;;;5060896;28;20055;-67
2022/09/22 07:22:59;;;;;;;13.05;5.30;;;;;;;;;;5056706;28;20500;-68
2022/09/22 07:25:27;;;;;;;10.98;5.85;;;;;;;;;;5060782;28;20048;-68
2022/09/22 07:27:53;;;;;;;9.95;5.00;;;;;;;;;;5060131;28;20115;-68
2022/09/22 07:30:21;;;;;;;11.38;5.22;;;;;;;;;;5052194;28;20064;-68
2022/09/22 07:32:47;;;;;;;11.98;5.22;;;;;;;;;;5062559;28;20051;-68
2022/09/22 07:35:13;;;;;;;14.20;5.78;;;;;;;;;;5062783;28;20512;-68
2022/09/22 07:37:40;;;;;;;12.55;5.63;;;;;;;;;;5062122;28;20059;-68
2022/09/22 07:40:07;;;;;;;9.18;5.47;;;;;;;;;;5062983;28;20049;-68
2022/09/22 07:42:33;;;;;;;11.23;4.95;;;;;;;;;;5064873;28;20044;-68
2022/09/22 07:45:11;;;;;;;9.05;5.25;;;;;;;;;;5061835;28;20044;-66
2022/09/22 07:50:22;;;;;;;10.60;3.83;;;;;;;;;;5064037;28;20076;-66
2022/09/22 07:52:51;;;;;;;9.50;4.78;;;;;;;;;;5069006;28;20127;-65
2022/09/22 07:55:17;;;;;;;9.15;4.53;;;;;;;;;;5060393;28;20457;-65
2022/09/22 07:57:43;;;;;;;10.35;4.75;;;;;;;;;;5065536;28;20401;-65
2022/09/22 08:00:10;;;;;;;11.15;4.45;;;;;;;;;;5060039;28;20054;-65
2022/09/22 08:02:36;;;;;;;10.32;4.43;;;;;;;;;;5066010;28;20044;-65
2022/09/22 08:05:03;;;;;;;10.98;4.75;;;;;;;;;;5065931;28;20117;-65
2022/09/22 08:07:31;;;;;;;12.20;4.68;;;;;;;;;;5067074;28;20036;-65
2022/09/22 08:09:58;;;;;;;8.00;4.30;;;;;;;;;;5058287;28;20586;-65
2022/09/22 08:12:25;;;;;;;9.98;3.92;;;;;;;;;;5063437;28;20047;-65
2022/09/22 08:14:52;;;;;;;9.32;4.25;;;;;;;;;;5066991;28;20044;-66
2022/09/22 08:17:18;;;;;;;13.52;4.20;;;;;;;;;;5062571;28;20044;-65
2022/09/22 08:19:44;;;;;;;12.52;4.35;;;;;;;;;;5060994;28;20048;-65
2022/09/22 08:22:10;;;;;;;11.57;4.68;;;;;;;;;;5061215;28;20041;-65
2022/09/22 08:24:37;;;;;;;7.22;4.22;;;;;;;;;;5058310;28;20067;-65
2022/09/22 08:27:03;;;;;;;11.15;3.55;;;;;;;;;;5068146;28;20360;-65
2022/09/22 08:29:30;;;;;;;9.90;3.20;;;;;;;;;;5056812;28;20439;-66
2022/09/22 08:31:56;;;;;;;7.88;3.20;;;;;;;;;;5050258;28;20233;-66
2022/09/22 08:34:22;;;;;;;9.98;3.25;;;;;;;;;;5050678;28;20055;-65
2022/09/22 08:36:48;;;;;;;7.75;3.75;;;;;;;;;;5059235;28;20047;-65
2022/09/22 08:39:15;;;;;;;7.00;2.88;;;;;;;;;;5062123;28;20380;-65
2022/09/22 08:41:47;;;;;;;7.47;3.10;;;;;;;;;;5061732;28;20404;-65
2022/09/22 08:44:17;;;;;;;8.00;2.85;;;;;;;;;;5062685;28;20483;-65
2022/09/22 08:46:44;;;;;;;8.80;3.20;;;;;;;;;;5062706;28;20075;-66
2022/09/22 08:51:59;;;;;;;5.72;2.60;;;;;;;;;;5062262;28;20049;-66
2022/09/22 08:54:27;;;;;;;7.32;3.30;;;;;;;;;;5061616;28;20037;-66
2022/09/22 08:57:12;;;;;;;6.05;2.80;;;;;;;;;;5060728;28;20403;-66
2022/09/22 08:59:43;;;;;;;9.90;3.13;;;;;;;;;;5062606;28;20087;-66
2022/09/22 09:02:31;;;;;;;11.70;3.20;;;;;;;;;;5052625;28;20075;-66
2022/09/22 09:05:13;;;;;;;8.70;3.15;;;;;;;;;;5062524;28;20481;-67
2022/09/22 09:07:44;;;;;;;7.47;2.17;;;;;;;;;;5056825;28;20419;-66
2022/09/22 09:10:14;;;;;;;6.38;2.63;;;;;;;;;;5055886;28;20401;-67
2022/09/22 09:12:40;;;;;;;9.00;2.55;;;;;;;;;;5057438;28;20456;-66
2022/09/22 09:15:22;;;;;;;7.88;3.22;;;;;;;;;;5058574;28;20396;-66
2022/09/22 09:17:49;;;;;;;7.22;2.40;;;;;;;;;;5055581;28;20497;-66
2022/09/22 09:20:18;;;;;;;5.97;2.55;;;;;;;;;;5062262;28;20064;-66
2022/09/22 09:22:54;;;;;;;7.20;2.75;;;;;;;;;;5059216;28;20036;-66
2022/09/22 09:25:35;;;;;;;8.48;2.60;;;;;;;;;;5062041;28;20049;-70
2022/09/22 09:28:20;;;;;;;9.43;2.72;;;;;;;;;;5060549;28;20051;-66
2022/09/22 09:30:49;;;;;;;6.50;2.53;;;;;;;;;;5063650;28;20469;-67
2022/09/22 09:33:34;;;;;;;9.00;2.97;;;;;;;;;;5065825;28;20048;-67
2022/09/22 09:36:01;;;;;;;7.78;2.40;;;;;;;;;;5063569;28;20117;-67
2022/09/22 09:38:29;;;;;;;7.85;2.58;;;;;;;;;;5061590;28;20555;-67
2022/09/22 09:40:59;;;;;;;8.88;2.65;;;;;;;;;;5060346;28;20048;-67
2022/09/22 09:43:27;;;;;;;12.68;2.85;;;;;;;;;;5068139;28;20171;-67
2022/09/22 09:45:53;;;;;;;6.15;2.80;;;;;;;;;;5064147;28;20040;-67
2022/09/22 09:48:30;;;;;;;9.13;3.05;;;;;;;;;;5062719;28;20084;-66
2022/09/22 09:51:01;;;;;;;8.30;2.40;;;;;;;;;;5064732;28;20057;-66
2022/09/22 09:53:30;;;;;;;11.60;4.38;;;;;;;;;;5062471;28;20047;-66
2022/09/22 09:55:57;;;;;;;9.77;4.13;;;;;;;;;;5063363;28;20040;-66
2022/09/22 10:01:12;;;;;;;8.40;3.85;;;;;;;;;;5050706;28;20040;-67
2022/09/22 10:03:45;;;;;;;11.05;4.10;;;;;;;;;;5055603;28;20128;-68
2022/09/22 10:06:12;;;;;;;10.38;3.78;;;;;;;;;;5059200;28;20094;-68
2022/09/22 10:08:43;;;;;;;7.88;3.88;;;;;;;;;;5061557;28;20111;-67
2022/09/22 10:11:11;;;;;;;8.18;3.25;;;;;;;;;;5063076;28;20048;-68
2022/09/22 10:13:38;;;;;;;8.93;3.80;;;;;;;;;;5060315;28;20435;-68
2022/09/22 10:16:21;;;;;;;9.88;3.42;;;;;;;;;;5063510;28;20037;-68
2022/09/22 10:18:49;;;;;;;8.30;3.73;;;;;;;;;;5060590;28;20049;-68
2022/09/22 10:21:20;;;;;;;7.93;3.30;;;;;;;;;;5063710;28;20350;-68
2022/09/22 10:23:48;;;;;;;8.00;3.25;;;;;;;;;;5061954;28;20519;-68
2022/09/22 10:26:19;;;;;;;10.20;3.80;;;;;;;;;;5058240;28;20784;-68
2022/09/22 10:28:49;;;;;;;7.53;3.20;;;;;;;;;;5053831;28;20114;-67
2022/09/22 10:31:19;;;;;;;14.98;3.00;;;;;;;;;;5062543;28;20048;-67
2022/09/22 10:33:56;;;;;;;11.88;3.55;;;;;;;;;;5063131;28;20404;-68
2022/09/22 10:36:24;;;;;;;8.32;3.65;;;;;;;;;;5062679;28;20388;-67
2022/09/22 10:38:52;;;;;;;11.60;3.92;;;;;;;;;;5066474;28;20045;-68
2022/09/22 10:41:26;;;;;;;7.95;3.70;;;;;;;;;;5052466;28;20106;-69
2022/09/22 10:44:00;;;;;;;8.70;3.50;;;;;;;;;;5046582;28;20044;-68
2022/09/22 10:46:39;;;;;;;13.18;4.03;;;;;;;;;;5049991;28;20069;-68
2022/09/22 10:49:20;;;;;;;8.50;2.75;;;;;;;;;;5054478;28;21216;-68
2022/09/22 10:51:57;;;;;;;10.48;4.15;;;;;;;;;;5054708;28;20037;-68
2022/09/22 10:54:33;;;;;;;12.45;4.93;;;;;;;;;;5053901;28;21427;-68
2022/09/22 10:57:08;;;;;;;12.85;4.35;;;;;;;;;;5053678;28;20048;-68
2022/09/22 10:59:43;;;;;;;9.95;4.30;;;;;;;;;;5060342;28;20044;-68
2022/09/22 11:02:29;;;;;;;7.68;4.60;;;;;;;;;;5053764;28;20041;-68
2022/09/22 11:05:01;;;;;;;8.02;4.22;;;;;;;;;;5055930;28;20045;-68
2022/09/22 11:13:25;;;;;;;9.98;4.40;;;;;;;;;;5053586;28;20423;-68
2022/09/22 11:16:02;;;;;;;9.20;4.50;;;;;;;;;;5057572;28;20117;-68
2022/09/22 11:18:36;;;;;;;10.38;4.53;;;;;;;;;;5053618;28;20043;-68
2022/09/22 11:21:10;;;;;;;10.25;4.43;;;;;;;;;;5059267;28;20059;-68
2022/09/22 11:23:46;;;;;;;9.68;4.40;;;;;;;;;;5056681;28;20076;-68
2022/09/22 11:26:13;;;;;;;10.32;3.92;;;;;;;;;;5060605;28;20044;-68
2022/09/22 11:28:39;;;;;;;8.02;4.00;;;;;;;;;;5054191;28;20082;-68
2022/09/22 11:31:05;;;;;;;8.15;4.55;;;;;;;;;;5059694;28;20203;-70
2022/09/22 11:33:41;;;;;;;10.73;4.55;;;;;;;;;;5056993;28;20041;-70
2022/09/22 11:36:07;;;;;;;10.50;4.93;;;;;;;;;;5058955;28;20479;-70
2022/09/22 11:38:39;;;;;;;12.00;4.20;;;;;;;;;;5059496;28;20036;-70
2022/09/22 11:41:05;;;;;;;9.32;3.90;;;;;;;;;;5060249;28;20043;-70
2022/09/22 11:43:51;;;;;;;10.02;3.65;;;;;;;;;;5059744;28;20036;-70
2022/09/22 11:46:22;;;;;;;11.82;4.38;;;;;;;;;;5056216;28;20044;-70
2022/09/22 11:48:55;;;;;;;9.25;3.85;;;;;;;;;;5053397;28;20041;-70
2022/09/22 11:51:29;;;;;;;9.23;4.13;;;;;;;;;;5056128;28;20137;-70
2022/09/22 11:54:00;;;;;;;7.75;4.35;;;;;;;;;;5058645;28;20459;-70
2022/09/22 11:56:33;;;;;;;10.25;4.47;;;;;;;;;;5058235;28;20055;-70
2022/09/22 11:59:03;;;;;;;10.60;5.18;;;;;;;;;;5050911;28;20060;-70
2022/09/22 12:01:31;;;;;;;10.02;4.95;;;;;;;;;;5051757;28;20043;-70
2022/09/22 12:04:03;;;;;;;8.80;4.32;;;;;;;;;;5047297;28;20033;-70
2022/09/22 12:06:32;;;;;;;9.18;4.72;;;;;;;;;;5047990;28;20106;-70
2022/09/22 12:09:02;;;;;;;9.77;4.78;;;;;;;;;;5047566;28;20043;-70
2022/09/22 12:11:31;;;;;;;10.18;4.10;;;;;;;;;;5057718;28;20090;-70
2022/09/22 12:13:58;;;;;;;11.45;4.70;;;;;;;;;;5055931;28;20055;-70
2022/09/22 12:16:30;;;;;;;10.93;5.05;;;;;;;;;;5058522;28;20045;-70
2022/09/22 12:19:12;;;;;;;8.82;5.00;;;;;;;;;;5058809;28;20052;-70
2022/09/22 12:21:47;;;;;;;8.30;4.90;;;;;;;;;;5056582;28;20502;-70
2022/09/22 12:24:13;;;;;;;7.40;4.25;;;;;;;;;;5050825;28;20185;-66
2022/09/22 12:26:41;;;;;;;10.82;4.32;;;;;;;;;;5053509;28;20052;-68
2022/09/22 12:29:17;;;;;;;10.10;4.00;;;;;;;;;;5057189;28;20404;-67
2022/09/22 12:31:47;;;;;;;9.18;4.10;;;;;;;;;;5057323;28;20041;-67
2022/09/22 12:34:17;;;;;;;9.65;4.47;;;;;;;;;;5055305;28;20504;-68
2022/09/22 12:36:43;;;;;;;10.30;4.60;;;;;;;;;;5056918;28;20045;-69
2022/09/22 12:39:11;;;;;;;6.78;3.92;;;;;;;;;;5062024;28;20073;-67
2022/09/22 12:41:47;;;;;;;10.23;4.75;;;;;;;;;;5042545;28;20045;-67
2022/09/22 12:44:16;;;;;;;13.45;4.75;;;;;;;;;;5048205;28;20045;-67
2022/09/22 12:46:43;;;;;;;10.25;5.28;;;;;;;;;;5047884;28;20205;-68
2022/09/22 12:49:14;;;;;;;9.98;5.32;;;;;;;;;;5046767;28;20037;-67
2022/09/22 12:51:40;;;;;;;11.05;5.60;;;;;;;;;;5048576;28;20076;-68
2022/09/22 12:54:22;;;;;;;9.07;5.93;;;;;;;;;;5044607;28;20041;-67
2022/09/22 12:56:57;;;;;;;13.55;6.20;;;;;;;;;;5044406;28;20056;-67
2022/09/22 12:59:36;;;;;;;11.63;5.95;;;;;;;;;;5046843;28;20051;-67
2022/09/22 13:02:14;;;;;;;15.57;6.13;;;;;;;;;;5053823;28;20531;-67
2022/09/22 13:05:00;;;;;;;17.20;6.90;;;;;;;;;;5055558;28;20721;-67
2022/09/22 13:07:37;;;;;;;12.77;5.57;;;;;;;;;;5057140;28;20052;-67
2022/09/22 13:10:21;;;;;;;11.63;5.30;;;;;;;;;;5053208;28;20045;-67
2022/09/22 13:13:08;;;;;;;12.55;5.90;;;;;;;;;;5051317;28;20056;-67
2022/09/22 13:15:46;;;;;;;12.85;5.65;;;;;;;;;;5050793;28;20056;-67
2022/09/22 13:18:29;;;;;;;11.75;5.85;;;;;;;;;;5066472;28;20567;-67
2022/09/22 13:20:56;;;;;;;10.45;5.93;;;;;;;;;;5050779;28;20119;-67
2022/09/22 13:23:23;;;;;;;12.15;5.28;;;;;;;;;;5051209;28;20115;-67
2022/09/22 13:25:50;;;;;;;13.00;5.72;;;;;;;;;;5054702;28;20122;-67
2022/09/22 13:28:21;;;;;;;13.85;5.80;;;;;;;;;;5051359;28;20056;-67
2022/09/22 13:30:58;;;;;;;12.85;5.40;;;;;;;;;;5052308;28;20056;-67
2022/09/22 13:33:25;;;;;;;13.02;6.05;;;;;;;;;;5052474;28;20055;-67
2022/09/22 13:35:53;;;;;;;12.40;6.47;;;;;;;;;;5053220;28;20043;-67
2022/09/22 13:38:20;;;;;;;10.10;5.22;;;;;;;;;;5049466;28;20103;-67
2022/09/22 13:40:48;;;;;;;10.70;4.65;;;;;;;;;;5056555;28;20084;-67
2022/09/22 13:43:28;;;;;;;10.30;4.68;;;;;;;;;;5055364;28;20046;-67
2022/09/22 13:45:55;;;;;;;9.48;4.32;;;;;;;;;;5056754;28;20052;-66
2022/09/22 13:48:21;;;;;;;9.65;4.95;;;;;;;;;;5057727;28;20128;-67
2022/09/22 13:50:52;;;;;;;7.63;4.20;;;;;;;;;;5051041;28;20388;-66
2022/09/22 13:53:19;;;;;;;11.00;4.53;;;;;;;;;;5055366;28;20052;-85
2022/09/22 13:55:48;;;;;;;10.25;4.53;;;;;;;;;;5045285;28;20036;-67
2022/09/22 13:58:19;;;;;;;10.20;4.50;;;;;;;;;;5052405;28;20569;-67
2022/09/22 14:00:47;;;;;;;13.48;5.28;;;;;;;;;;5055573;28;20114;-67
2022/09/22 14:03:19;;;;;;;11.48;4.60;;;;;;;;;;5047933;28;20045;-66
2022/09/22 14:05:45;;;;;;;9.32;3.88;;;;;;;;;;5054584;28;20049;-67
2022/09/22 14:08:14;;;;;;;11.55;4.88;;;;;;;;;;5054402;28;20055;-67
2022/09/22 14:10:41;;;;;;;11.45;4.28;;;;;;;;;;5049667;28;20485;-67
2022/09/22 14:13:26;;;;;;;10.45;4.15;;;;;;;;;;5054131;28;20186;-67
2022/09/22 14:15:53;;;;;;;7.25;3.65;;;;;;;;;;5046469;28;20041;-67
2022/09/22 14:18:23;;;;;;;12.80;3.80;;;;;;;;;;5038253;28;20042;-67
2022/09/22 14:20:51;;;;;;;11.48;3.58;;;;;;;;;;5048887;28;20041;-67
2022/09/22 14:23:24;;;;;;;8.05;3.53;;;;;;;;;;5048087;28;20607;-67
2022/09/22 14:25:50;;;;;;;8.98;3.55;;;;;;;;;;5048242;28;20057;-67
2022/09/22 14:28:19;;;;;;;7.57;2.88;;;;;;;;;;5050797;28;20525;-67
2022/09/22 14:30:46;;;;;;;10.30;3.17;;;;;;;;;;5047020;28;20105;-67
2022/09/22 14:33:16;;;;;;;9.00;3.17;;;;;;;;;;5045645;28;20040;-67
2022/09/22 14:35:42;;;;;;;7.53;2.80;;;;;;;;;;5048604;28;20040;-67
2022/09/22 14:38:08;;;;;;;10.50;3.40;;;;;;;;;;5048102;28;20142;-67
2022/09/22 14:40:37;;;;;;;9.75;3.75;;;;;;;;;;5047170;28;20052;-66
2022/09/22 14:43:07;;;;;;;8.90;3.13;;;;;;;;;;5041011;28;20040;-69
2022/09/22 14:45:36;;;;;;;8.75;3.15;;;;;;;;;;5038744;28;20115;-68
2022/09/22 14:48:09;;;;;;;11.18;3.65;;;;;;;;;;5049394;28;20048;-68
2022/09/22 14:50:40;;;;;;;8.23;2.45;;;;;;;;;;5045428;28;20527;-68
2022/09/22 14:53:14;;;;;;;6.90;2.17;;;;;;;;;;5047468;28;20124;-68
2022/09/22 14:55:42;;;;;;;6.18;2.60;;;;;;;;;;5058117;28;20087;-68
2022/09/22 14:58:21;;;;;;;8.98;3.58;;;;;;;;;;5063008;28;20056;-67
2022/09/22 15:03:42;;;;;;;7.85;2.80;;;;;;;;;;5060468;28;20060;-69
2022/09/22 15:06:11;;;;;;;6.43;2.45;;;;;;;;;;5088601;28;20037;-68
2022/09/22 15:08:38;;;;;;;5.15;2.67;;;;;;;;;;5047500;28;20049;-68